地図

経路データ

SID SEASON NUMBER BASIN SUBBASIN NAME ISO_TIME NATURE LAT LON WMO_WIND WMO_PRES WMO_AGENCY TRACK_TYPE DIST2LAND LANDFALL IFLAG USA_AGENCY USA_ATCF_ID USA_LAT USA_LON USA_RECORD USA_STATUS USA_WIND USA_PRES USA_SSHS USA_R34_NE USA_R34_SE USA_R34_SW USA_R34_NW USA_R50_NE USA_R50_SE USA_R50_SW USA_R50_NW USA_R64_NE USA_R64_SE USA_R64_SW USA_R64_NW USA_POCI USA_ROCI USA_RMW USA_EYE TOKYO_LAT TOKYO_LON TOKYO_GRADE TOKYO_WIND TOKYO_PRES TOKYO_R50_DIR TOKYO_R50_LONG TOKYO_R50_SHORT TOKYO_R30_DIR TOKYO_R30_LONG TOKYO_R30_SHORT TOKYO_LAND CMA_LAT CMA_LON CMA_CAT CMA_WIND CMA_PRES HKO_LAT HKO_LON HKO_CAT HKO_WIND HKO_PRES NEWDELHI_LAT NEWDELHI_LON NEWDELHI_GRADE NEWDELHI_WIND NEWDELHI_PRES NEWDELHI_CI NEWDELHI_DP NEWDELHI_POCI REUNION_LAT REUNION_LON REUNION_TYPE REUNION_WIND REUNION_PRES REUNION_TNUM REUNION_CI REUNION_RMW REUNION_R34_NE REUNION_R34_SE REUNION_R34_SW REUNION_R34_NW REUNION_R50_NE REUNION_R50_SE REUNION_R50_SW REUNION_R50_NW REUNION_R64_NE REUNION_R64_SE REUNION_R64_SW REUNION_R64_NW BOM_LAT BOM_LON BOM_TYPE BOM_WIND BOM_PRES BOM_TNUM BOM_CI BOM_RMW BOM_R34_NE BOM_R34_SE BOM_R34_SW BOM_R34_NW BOM_R50_NE BOM_R50_SE BOM_R50_SW BOM_R50_NW BOM_R64_NE BOM_R64_SE BOM_R64_SW BOM_R64_NW BOM_ROCI BOM_POCI BOM_EYE BOM_POS_METHOD BOM_PRES_METHOD NADI_LAT NADI_LON NADI_CAT NADI_WIND NADI_PRES WELLINGTON_LAT WELLINGTON_LON WELLINGTON_WIND WELLINGTON_PRES DS824_LAT DS824_LON DS824_STAGE DS824_WIND DS824_PRES TD9636_LAT TD9636_LON TD9636_STAGE TD9636_WIND TD9636_PRES TD9635_LAT TD9635_LON TD9635_WIND TD9635_PRES TD9635_ROCI NEUMANN_LAT NEUMANN_LON NEUMANN_CLASS NEUMANN_WIND NEUMANN_PRES MLC_LAT MLC_LON MLC_CLASS MLC_WIND MLC_PRES USA_GUST BOM_GUST BOM_GUST_PER REUNION_GUST REUNION_GUST_PER USA_SEAHGT USA_SEARAD_NE USA_SEARAD_SE USA_SEARAD_SW USA_SEARAD_NW STORM_SPEED STORM_DIR
1991352S08066 1992 102 SI MM ALEXANDRA 1991-12-17 12:00:00 TS -7.50000 66.0000 main 1670 1666 O___________O_ jtwc_sh SH091992 -7.50000 66.0000 20 -1 -7.50000 66.0000 TC 20 10 113
1991352S08066 1992 102 SI MM ALEXANDRA 1991-12-17 15:00:00 TS -7.69511 66.4524 main 1681 1677 P___________P_ SH091992 -7.69511 66.4524 20 -1 -7.69511 66.4524 TC 20 10 114
1991352S08066 1992 102 SI MM ALEXANDRA 1991-12-17 18:00:00 TS -7.90000 66.9000 main 1687 1684 O___________O_ jtwc_sh SH091992 -7.90000 66.9000 20 -1 -7.90000 66.9000 TC 20 10 115
1991352S08066 1992 102 SI MM ALEXANDRA 1991-12-17 21:00:00 TS -8.11492 67.3425 main 1694 1692 P___________P_ SH091992 -8.11492 67.3425 20 -1 -8.11492 67.3425 TC 20 10 116
1991352S08066 1992 102 SI MM ALEXANDRA 1991-12-18 00:00:00 TS -8.35556 67.8222 20 1005 reunion main 1701 1701 O____O______O_ jtwc_sh SH091992 -8.30000 67.8000 20 -1 -8.80000 68.0000 2 20 1005 9.90000 1.50000 -8.30000 67.8000 TC 20 11 114
1991352S08066 1992 102 SI MM ALEXANDRA 1991-12-18 03:00:00 TS -8.55548 68.3280 main 1719 1719 P____P______P_ SH091992 -8.41496 68.2926 20 -1 -9.11755 68.4699 2 20 1005 -8.41496 68.2926 TC 20 11 111
1991352S08066 1992 102 SI MM ALEXANDRA 1991-12-18 06:00:00 TS -8.74545 68.8545 20 1005 reunion main 1754 1746 O____O______O_ jtwc_sh SH091992 -8.50000 68.8000 20 -1 -9.40000 69.0000 2 20 1005 9.90000 1.50000 -8.50000 68.8000 TC 20 11 110
1991352S08066 1992 102 SI MM ALEXANDRA 1991-12-18 09:00:00 TS -8.94162 69.4091 main 1775 1775 P____P______P_ SH091992 -8.60744 69.3000 22 -1 -9.60999 69.6274 2 20 1003 -8.60744 69.3000 TC 22 11 105
1991352S08066 1992 102 SI MM ALEXANDRA 1991-12-18 12:00:00 TS -9.03333 69.9667 20 1002 reunion main 1814 1814 O____O______O_ jtwc_sh SH091992 -8.70000 69.8000 25 -1 -9.70000 70.3000 2 20 1002 9.90000 2.00000 -8.70000 69.8000 TC 25 11 96
1991352S08066 1992 102 SI MM ALEXANDRA 1991-12-18 15:00:00 TS -9.04827 70.5218 main 1853 1853 P____P______P_ SH091992 -8.75743 70.3000 25 -1 -9.62996 70.9652 2 22 1001 -8.75743 70.3000 TC 25 11 90
1991352S08066 1992 102 SI MM ALEXANDRA 1991-12-18 18:00:00 TS -9.03333 71.0667 24 1000 reunion main 1901 1901 O____O______O_ jtwc_sh SH091992 -8.80000 70.8000 25 -1 -9.50000 71.6000 2 24 1000 9.90000 2.00000 -8.80000 70.8000 TC 25 11 90
1991352S08066 1992 102 SI MM ALEXANDRA 1991-12-18 21:00:00 TS -9.04492 71.5933 main 1938 1921 P____P______P_ SH091992 -8.84993 71.3000 25 -1 -9.43490 72.1800 2 24 1000 -8.84993 71.3000 TC 25 10 92
1991352S08066 1992 102 SI MM ALEXANDRA 1991-12-19 00:00:00 TS -9.06667 72.1000 24 1000 reunion main 1921 1895 O____O______O_ jtwc_sh SH091992 -8.90000 71.8000 25 -1 -9.40000 72.7000 2 24 1000 9.90000 2.00000 -8.90000 71.8000 TC 25 10 92
1991352S08066 1992 102 SI MM ALEXANDRA 1991-12-19 03:00:00 TS -9.08244 72.5934 main 1895 1875 P____P______P_ SH091992 -8.93496 72.3076 25 -1 -9.37738 73.1650 2 26 998 -8.93496 72.3076 TC 25 10 94
1991352S08066 1992 102 SI MM ALEXANDRA 1991-12-19 06:00:00 TS -9.13333 73.0667 28 997 reunion main 1871 1862 O____O______O_ jtwc_sh SH091992 -9.00000 72.8000 25 -1 -9.40000 73.6000 2 28 997 9.90000 2.50000 -9.00000 72.8000 TC 25 9 99
1991352S08066 1992 102 SI MM ALEXANDRA 1991-12-19 09:00:00 TS -9.22664 73.5342 main 1862 1855 P____P______P_ SH091992 -9.11244 73.2651 27 -1 -9.45502 74.0725 2 28 997 -9.11244 73.2651 TC 27 9 107
1991352S08066 1992 102 SI MM ALEXANDRA 1991-12-19 12:00:00 TS -9.40000 73.9667 28 997 reunion main 1861 1857 O____O______O_ jtwc_sh SH091992 -9.30000 73.7000 30 -1 -9.60000 74.5000 2 28 997 9.90000 2.50000 -9.30000 73.7000 TC 30 9 118
1991352S08066 1992 102 SI MM ALEXANDRA 1991-12-19 15:00:00 TS -9.65996 74.3583 main 1876 1873 P____P______P_ SH091992 -9.56248 74.1225 30 -1 -9.85493 74.8300 2 30 995 -9.56248 74.1225 TC 30 9 130
1991352S08066 1992 102 SI MM ALEXANDRA 1991-12-19 18:00:00 TS -10.0000 74.7000 32 994 reunion main 1897 1897 O____O______O_ jtwc_sh SH091992 -9.90000 74.5000 30 -1 -10.2000 75.1000 2 32 994 9.90000 2.50000 -9.90000 74.5000 TC 30 10 139
1991352S08066 1992 102 SI MM ALEXANDRA 1991-12-19 21:00:00 TS -10.3825 75.0009 main 1929 1929 P____P______P_ SH091992 -10.2849 74.8225 32 -1 -10.5775 75.3576 2 34 992 -10.2849 74.8225 TC 32 10 145
1991352S08066 1992 102 SI MM ALEXANDRA 1991-12-20 00:00:00 TS -10.8000 75.2667 36 991 reunion main 1961 1961 O____O______O_ jtwc_sh SH091992 -10.7000 75.1000 35 0 -11.0000 75.6000 3 36 991 9.90000 3.00000 -10.7000 75.1000 TC 35 10 148
1991352S08066 1992 102 SI MM ALEXANDRA 1991-12-20 03:00:00 TS -11.2116 75.5267 main 1997 1997 P____P______P_ SH091992 -11.0925 75.3576 37 0 -11.4500 75.8650 3 39 988 -11.0925 75.3576 TC 37 10 149
1991352S08066 1992 102 SI MM ALEXANDRA 1991-12-20 06:00:00 TS -11.6333 75.7667 43 985 reunion main 2031 2031 O____O______O_ jtwc_sh SH091992 -11.5000 75.6000 40 0 -11.9000 76.1000 3 43 985 9.90000 3.50000 -11.5000 75.6000 TC 40 10 151
1991352S08066 1992 102 SI MM ALEXANDRA 1991-12-20 09:00:00 TS -12.0592 75.9984 main 2080 2080 P____P______P_ SH091992 -11.9350 75.8650 45 0 -12.3075 76.2651 3 45 982 -11.9350 75.8650 TC 45 10 154
1991352S08066 1992 102 SI MM ALEXANDRA 1991-12-20 12:00:00 TS -12.5000 76.2000 48 980 reunion main 2118 2118 O____O______O_ jtwc_sh SH091992 -12.4000 76.1000 50 0 -12.7000 76.4000 3 48 980 9.90000 3.50000 -12.4000 76.1000 TC 50 10 159
1991352S08066 1992 102 SI MM ALEXANDRA 1991-12-20 15:00:00 TS -12.9616 76.3626 main 2141 2132 P____P______P_ SH091992 -12.9000 76.2651 55 0 -13.0850 76.5575 3 50 978 -12.9000 76.2651 TC 55 10 163
1991352S08066 1992 102 SI MM ALEXANDRA 1991-12-20 18:00:00 TS -13.4333 76.5000 52 976 reunion main 2132 2120 O____O______O_ jtwc_sh SH091992 -13.4000 76.4000 60 0 -13.5000 76.7000 3 52 976 9.90000 4.00000 -13.4000 76.4000 TC 60 10 164
1991352S08066 1992 102 SI MM ALEXANDRA 1991-12-20 21:00:00 TS -13.9025 76.6334 main 2120 2114 P____P______P_ SH091992 -13.8650 76.5501 67 1 -13.9775 76.8001 3 54 974 -13.8650 76.5501 TC 67 10 165
1991352S08066 1992 102 SI MM ALEXANDRA 1991-12-21 00:00:00 TS -14.3667 76.7667 56 972 reunion main 2120 2108 O____O______O_ jtwc_sh SH091992 -14.3000 76.7000 75 1 -14.5000 76.9000 3 56 972 9.90000 4.00000 -14.3000 76.7000 TC 75 10 164
1991352S08066 1992 102 SI MM ALEXANDRA 1991-12-21 03:00:00 TS -14.8316 76.9043 main 2114 2107 P____P______P_ SH091992 -14.7150 76.8501 80 1 -15.0649 77.0127 3 54 974 -14.7150 76.8501 TC 80 10 162
1991352S08066 1992 102 SI MM ALEXANDRA 1991-12-21 06:00:00 TS -15.2667 77.0667 52 976 reunion main 2117 2113 O____O______O_ jtwc_sh SH091992 -15.1000 77.0000 85 2 -15.6000 77.2000 3 52 976 9.90000 4.00000 -15.1000 77.0000 TC 85 9 157
1991352S08066 1992 102 SI MM ALEXANDRA 1991-12-21 09:00:00 TS -15.6683 77.2708 main 2124 2120 P____P______P_ SH091992 -15.4725 77.1426 87 2 -16.0601 77.5273 3 52 976 -15.4725 77.1426 TC 87 8 150
1991352S08066 1992 102 SI MM ALEXANDRA 1991-12-21 12:00:00 TS -16.0000 77.5000 52 976 reunion main 2135 2132 O____O______O_ jtwc_sh SH091992 -15.8000 77.3000 90 2 -16.4000 77.9000 3 52 976 9.90000 4.00000 -15.8000 77.3000 TC 90 7 144
1991352S08066 1992 102 SI MM ALEXANDRA 1991-12-21 15:00:00 TS -16.2591 77.7259 main 2146 2146 P____P______P_ SH091992 -16.0800 77.4850 92 2 -16.6174 78.2076 3 50 978 -16.0800 77.4850 TC 92 6 134
1991352S08066 1992 102 SI MM ALEXANDRA 1991-12-21 18:00:00 TS -16.4333 77.9667 48 980 reunion main 2174 2171 O____O______O_ jtwc_sh SH091992 -16.3000 77.7000 95 2 -16.7000 78.5000 3 48 980 9.90000 3.50000 -16.3000 77.7000 TC 95 6 121
1991352S08066 1992 102 SI MM ALEXANDRA 1991-12-21 21:00:00 TS -16.5542 78.2334 main 2189 2189 P____P______P_ SH091992 -16.4800 77.9350 97 3 -16.7026 78.8301 3 46 982 -16.4800 77.9350 TC 97 5 108
1991352S08066 1992 102 SI MM ALEXANDRA 1991-12-22 00:00:00 TS -16.6000 78.5000 44 984 reunion main 2220 2220 O____O______O_ jtwc_sh SH091992 -16.6000 78.2000 100 3 -16.6000 79.1000 3 44 984 9.90000 3.50000 -16.6000 78.2000 TC 100 5 92
1991352S08066 1992 102 SI MM ALEXANDRA 1991-12-22 03:00:00 TS -16.5717 78.7584 main 2251 2251 P____P______P_ SH091992 -16.6650 78.5076 100 3 -16.3849 79.2600 3 41 986 -16.6650 78.5076 TC 100 5 82
1991352S08066 1992 102 SI MM ALEXANDRA 1991-12-22 06:00:00 TS -16.5333 78.9667 39 988 reunion main 2275 2275 O____O______O_ jtwc_sh SH091992 -16.7000 78.8000 100 3 -16.2000 79.3000 3 39 988 9.90000 3.00000 -16.7000 78.8000 TC 100 3 90
1991352S08066 1992 102 SI MM ALEXANDRA 1991-12-22 09:00:00 TS -16.5708 79.0842 main 2282 2282 P____P______P_ SH091992 -16.7575 79.0300 102 3 -16.1975 79.1925 3 37 989 -16.7575 79.0300 TC 102 2 118
1991352S08066 1992 102 SI MM ALEXANDRA 1991-12-22 12:00:00 TS -16.6333 79.1667 36 991 reunion main 2293 2290 O____O______O_ jtwc_sh SH091992 -16.8000 79.2000 105 3 -16.3000 79.1000 3 36 991 9.90000 3.00000 -16.8000 79.2000 TC 105 2 118
1991352S08066 1992 102 SI MM ALEXANDRA 1991-12-22 15:00:00 TS -16.6758 79.2883 main 2301 2301 P____P______P_ SH091992 -16.8000 79.3150 102 3 -16.4276 79.2349 3 36 991 -16.8000 79.3150 TC 102 2 114
1991352S08066 1992 102 SI MM ALEXANDRA 1991-12-22 18:00:00 TS -16.7333 79.4000 36 991 reunion main 2311 2308 O____O______O_ jtwc_sh SH091992 -16.8000 79.4000 100 3 -16.6000 79.4000 3 36 991 9.90000 3.00000 -16.8000 79.4000 TC 100 2 127
1991352S08066 1992 102 SI MM ALEXANDRA 1991-12-22 21:00:00 TS -16.8258 79.4942 main 2319 2316 P____P______P_ SH091992 -16.8350 79.5150 97 3 -16.8074 79.4525 3 36 991 -16.8350 79.5150 TC 97 2 147
1991352S08066 1992 102 SI MM ALEXANDRA 1991-12-23 00:00:00 TS -16.9333 79.5333 36 991 reunion main 2316 2314 O____O______O_ jtwc_sh SH091992 -16.9000 79.6000 95 2 -17.0000 79.4000 3 36 991 9.90000 3.00000 -16.9000 79.6000 TC 95 2 0
1991352S08066 1992 102 SI MM ALEXANDRA 1991-12-23 03:00:00 TS -17.0433 79.5017 main 2314 2301 P____P______P_ SH091992 -16.9925 79.6375 90 2 -17.1450 79.2301 3 36 991 -16.9925 79.6375 TC 90 2 213
1991352S08066 1992 102 SI MM ALEXANDRA 1991-12-23 06:00:00 TS -17.1333 79.4000 36 991 reunion main 2301 2288 O____O______O_ jtwc_sh SH091992 -17.1000 79.6000 85 2 -17.2000 79.0000 3 36 991 9.90000 3.00000 -17.1000 79.6000 TC 85 3 239
1991352S08066 1992 102 SI MM ALEXANDRA 1991-12-23 09:00:00 TS -17.1816 79.2608 main 2288 2267 P____P______P_ SH091992 -17.2075 79.4875 82 1 -17.1300 78.8074 3 36 991 -17.2075 79.4875 TC 82 3 258
1991352S08066 1992 102 SI MM ALEXANDRA 1991-12-23 12:00:00 TS -17.2000 79.0667 36 991 reunion main 2267 2247 O____O______O_ jtwc_sh SH091992 -17.3000 79.3000 80 1 -17.0000 78.6000 3 36 991 9.90000 3.00000 -17.3000 79.3000 TC 80 4 267
1991352S08066 1992 102 SI MM ALEXANDRA 1991-12-23 15:00:00 TS -17.2025 78.8391 main 2236 2215 P____P______P_ SH091992 -17.3575 79.0800 77 1 -16.8925 78.3575 3 34 992 -17.3575 79.0800 TC 77 5 270
1991352S08066 1992 102 SI MM ALEXANDRA 1991-12-23 18:00:00 TS -17.2000 78.5667 32 994 reunion main 2215 2184 O____O______O_ jtwc_sh SH091992 -17.4000 78.8000 75 1 -16.8000 78.1000 2 32 994 9.90000 2.50000 -17.4000 78.8000 TC 75 5 269
1991352S08066 1992 102 SI MM ALEXANDRA 1991-12-23 21:00:00 TS -17.2116 78.2650 main 2184 2153 P____P______P_ SH091992 -17.4500 78.4725 70 1 -16.7350 77.8500 2 30 995 -17.4500 78.4725 TC 70 6 267
1991352S08066 1992 102 SI MM ALEXANDRA 1991-12-24 00:00:00 TS -17.2333 77.9333 28 997 reunion main 2143 2109 O____O______O_ jtwc_sh SH091992 -17.5000 78.1000 65 1 -16.7000 77.6000 2 28 997 9.90000 2.50000 -17.5000 78.1000 TC 65 6 265
1991352S08066 1992 102 SI MM ALEXANDRA 1991-12-24 03:00:00 TS -17.2691 77.5934 main 2109 2078 P____P______P_ SH091992 -17.5574 77.7150 62 0 -16.6925 77.3500 2 26 998 -17.5574 77.7150 TC 62 7 264
1991352S08066 1992 102 SI MM ALEXANDRA 1991-12-24 06:00:00 TS -17.3000 77.2333 24 1000 reunion main 2068 2037 O____O______O_ jtwc_sh SH091992 -17.6000 77.3000 60 0 -16.7000 77.1000 2 24 1000 9.90000 2.00000 -17.6000 77.3000 TC 60 7 267
1991352S08066 1992 102 SI MM ALEXANDRA 1991-12-24 09:00:00 TS -17.3024 76.8624 main 2037 1995 P____P______P_ SH091992 -17.6074 76.8575 55 0 -16.6924 76.8725 2 24 1000 -17.6074 76.8575 TC 55 7 270
1991352S08066 1992 102 SI MM ALEXANDRA 1991-12-24 12:00:00 TS -17.3000 76.4667 24 1000 reunion main 1995 1954 O____O______O_ jtwc_sh SH091992 -17.6000 76.4000 50 0 -16.7000 76.6000 2 24 1000 9.90000 2.00000 -17.6000 76.4000 TC 50 8 270
1991352S08066 1992 102 SI MM ALEXANDRA 1991-12-24 15:00:00 TS -17.3041 76.0408 main 1943 1902 P____P______P_ SH091992 -17.5924 75.9425 47 0 -16.7274 76.2374 2 24 1000 -17.5924 75.9425 TC 47 8 268
1991352S08066 1992 102 SI MM ALEXANDRA 1991-12-24 18:00:00 TS -17.3333 75.6000 24 1000 reunion main 1902 1858 O____O______O_ jtwc_sh SH091992 -17.6000 75.5000 45 0 -16.8000 75.8000 2 24 1000 9.90000 2.00000 -17.6000 75.5000 TC 45 8 264
1991352S08066 1992 102 SI MM ALEXANDRA 1991-12-24 21:00:00 TS -17.3966 75.1616 main 1858 1814 P____P______P_ SH091992 -17.6349 75.0850 42 0 -16.9200 75.3149 2 24 1000 -17.6349 75.0850 TC 42 8 259
1991352S08066 1992 102 SI MM ALEXANDRA 1991-12-25 00:00:00 TS -17.5000 74.7333 24 1000 reunion main 1804 1760 O____O______O_ jtwc_sh SH091992 -17.7000 74.7000 40 0 -17.1000 74.8000 2 24 1000 9.90000 2.00000 -17.7000 74.7000 TC 40 8 254
1991352S08066 1992 102 SI MM ALEXANDRA 1991-12-25 03:00:00 TS -17.6324 74.3233 main 1760 1724 P____P______P_ SH091992 -17.7849 74.3425 37 0 -17.3275 74.2850 2 24 1000 -17.7849 74.3425 TC 37 8 248
1991352S08066 1992 102 SI MM ALEXANDRA 1991-12-25 06:00:00 TS -17.8000 73.9333 24 1000 reunion main 1714 1678 O____O______O_ jtwc_sh SH091992 -17.9000 74.0000 35 0 -17.6000 73.8000 2 24 1000 9.90000 2.00000 -17.9000 74.0000 TC 35 8 243
1991352S08066 1992 102 SI MM ALEXANDRA 1991-12-25 09:00:00 TS -17.9974 73.5592 main 1678 1633 P____P______P_ SH091992 -18.0424 73.6500 32 -1 -17.9074 73.3775 2 24 1000 -18.0424 73.6500 TC 32 8 240
1991352S08066 1992 102 SI MM ALEXANDRA 1991-12-25 12:00:00 TS -18.2000 73.2000 24 1000 reunion main 1633 1597 O____O______O_ jtwc_sh SH091992 -18.2000 73.3000 30 -1 -18.2000 73.0000 2 24 1000 9.90000 2.00000 -18.2000 73.3000 TC 30 8 241
1991352S08066 1992 102 SI MM ALEXANDRA 1991-12-25 15:00:00 TS -18.3741 72.8499 main 1587 1554 P____P______P_ SH091992 -18.3499 72.9499 30 -1 -18.4223 72.6498 2 24 1000 -18.3499 72.9499 TC 30 7 243
1991352S08066 1992 102 SI MM ALEXANDRA 1991-12-25 18:00:00 TS -18.5333 72.5000 24 1000 reunion main 1554 1519 O____O______O_ jtwc_sh SH091992 -18.5000 72.6000 30 -1 -18.6000 72.3000 2 24 1000 9.90000 2.00000 -18.5000 72.6000 TC 30 8 244
1991352S08066 1992 102 SI MM ALEXANDRA 1991-12-25 21:00:00 TS -18.7033 72.1359 main 1509 1476 P____P______P_ SH091992 -18.6649 72.2500 27 -1 -18.7800 71.9076 2 24 1000 -18.6649 72.2500 TC 27 8 247
1991352S08066 1992 102 SI MM ALEXANDRA 1991-12-26 00:00:00 TS -18.8400 71.7400 24 1000 reunion main 1465 1422 O____O______O_ jtwc_sh SH091992 -18.8000 71.9000 25 -1 -18.9000 71.5000 2 24 1000 9.90000 2.00000 -18.8000 71.9000 TC 25 8 257
1991352S08066 1992 102 SI MM ALEXANDRA 1991-12-26 03:00:00 TS -18.8850 71.3211 main 1422 1380 P____P______P_ SH091992 -18.8701 71.5500 25 -1 -18.9000 71.0922 2 22 1001 -18.8701 71.5500 TC 25 8 266
1991352S08066 1992 102 SI MM ALEXANDRA 1991-12-26 06:00:00 TS -18.9000 70.8667 20 1002 reunion main 1380 1316 O____O______O_ jtwc_sh SH091992 -18.9000 71.2000 25 -1 -18.9000 70.7000 2 20 1002 9.90000 2.00000 -18.9000 71.2000 TC 25 10 262
1991352S08066 1992 102 SI MM ALEXANDRA 1991-12-26 09:00:00 TS -19.0125 70.3126 main 1316 1282 _____P________ SH091992 -1 -19.0125 70.3126 2 20 1002 TC 9 250
1991352S08066 1992 102 SI MM ALEXANDRA 1991-12-26 12:00:00 TS -19.2000 70.0000 20 1002 reunion main 1282 1267 _____O________ -1 -19.2000 70.0000 2 20 1002 9.90000 2.00000 6 224
1991352S08066 1992 102 SI MM ALEXANDRA 1991-12-26 15:00:00 TS -19.4648 69.8499 main 1257 1244 _____P________ -1 -19.4648 69.8499 2 20 1003 6 210
1991352S08066 1992 102 SI MM ALEXANDRA 1991-12-26 18:00:00 TS -19.7000 69.7000 20 1005 reunion main 1244 1213 _____O________ -1 -19.7000 69.7000 2 20 1005 9.90000 1.50000 6 240
1991352S08066 1992 102 SI MM ALEXANDRA 1991-12-26 21:00:00 TS -19.7427 69.3423 main 1203 1170 _____P________ -1 -19.7427 69.3423 2 20 1005 7 261
1991352S08066 1992 102 SI MM ALEXANDRA 1991-12-27 00:00:00 TS -19.8000 69.0000 20 1005 reunion main 1170 1158 _____O________ -1 -19.8000 69.0000 2 20 1005 9.90000 1.50000 6 235
1991352S08066 1992 102 SI MM ALEXANDRA 1991-12-27 03:00:00 TS -20.0624 68.8475 main 1147 1146 _____P________ -1 -20.0624 68.8475 2 20 1005 6 198
1991352S08066 1992 102 SI MM ALEXANDRA 1991-12-27 06:00:00 TS -20.4000 68.8000 20 1005 reunion main 1146 1146 _____O________ -1 -20.4000 68.8000 2 20 1005 9.90000 1.50000 6 182
1991352S08066 1992 102 SI MM ALEXANDRA 1991-12-27 09:00:00 TS -20.7074 68.8222 main 1146 1146 _____P________ -1 -20.7074 68.8222 2 20 1005 6 179
1991352S08066 1992 102 SI MM ALEXANDRA 1991-12-27 12:00:00 TS -21.0000 68.8000 20 1005 reunion main 1146 1127 _____O________ -1 -21.0000 68.8000 2 20 1005 9.90000 1.50000 6 201
1991352S08066 1992 102 SI MM ALEXANDRA 1991-12-27 15:00:00 TS -21.2725 68.5951 main 1127 1098 _____P________ -1 -21.2725 68.5951 2 7 223
1991352S08066 1992 102 SI MM ALEXANDRA 1991-12-27 18:00:00 TS -21.5000 68.3000 reunion main 1098 1069 _____O________ -1 -21.5000 68.3000 6 9.90000 7 234
1991352S08066 1992 102 SI MM ALEXANDRA 1991-12-27 21:00:00 TS -21.6800 68.0000 main 1069 1040 _____P________ -1 -21.6800 68.0000 6 6 242
1991352S08066 1992 102 SI MM ALEXANDRA 1991-12-28 00:00:00 TS -21.8000 67.7000 reunion main 1040 1011 _____O________ -1 -21.8000 67.7000 6 9.90000 6 250
1991352S08066 1992 102 SI MM ALEXANDRA 1991-12-28 03:00:00 TS -21.8725 67.4349 main 1011 991 _____P________ -1 -21.8725 67.4349 6 5 258
1991352S08066 1992 102 SI MM ALEXANDRA 1991-12-28 06:00:00 TS -21.9000 67.2000 reunion main 991 970 _____O________ -1 -21.9000 67.2000 6 9.90000 4 265
1991352S08066 1992 102 SI MM ALEXANDRA 1991-12-28 09:00:00 TS -21.9074 66.9925 main 970 950 _____P________ -1 -21.9074 66.9925 6 4 270
1991352S08066 1992 102 SI MM ALEXANDRA 1991-12-28 12:00:00 TS -21.9000 66.8000 reunion main 950 929 _____O________ -1 -21.9000 66.8000 6 9.90000 4 270
1991352S08066 1992 102 SI MM ALEXANDRA 1991-12-28 15:00:00 TS -21.9075 66.6000 main 929 909 _____P________ -1 -21.9075 66.6000 6 4 270
1991352S08066 1992 102 SI MM ALEXANDRA 1991-12-28 18:00:00 TS -21.9000 66.4000 reunion main 909 889 _____O________ -1 -21.9000 66.4000 6 9.90000 4 277
1991352S08066 1992 102 SI MM ALEXANDRA 1991-12-28 21:00:00 TS -21.8600 66.1999 main 889 867 _____P________ -1 -21.8600 66.1999 6 4 285
1991352S08066 1992 102 SI MM ALEXANDRA 1991-12-29 00:00:00 TS -21.8000 66.0000 reunion main 867 _____O________ -1 -21.8000 66.0000 6 9.90000 4 288

IBTrACS Databaseについて

本データベースは、米国NOAAが公開する1842年以降の世界の熱帯低気圧のベストトラックデータアーカイブInternational Best Track Archive for Climate Stewardship (IBTrACS)を、ウェブで閲覧しやすい形式に変換したものです。

最終更新日:2021-10-21